Time;durP1;ratioP1;P1;durP2;ratioP2;P2;SDS_P1;SDS_P2;PMS_P1;PMS_P2;Temp;Humidity;BMP_temperature;BMP_pressure;BME280_temperature;BME280_humidity;BME280_pressure;Samples;Min_cycle;Max_cycle;Signal;HPM_P1;HPM_P2
2022/04/01 00:00:12;;;;;;;;;;;17.90;52.40;;;;;;5007720;28;19913;-76
2022/04/01 00:02:37;;;;;;;;;;;17.90;52.40;;;;;;4989614;28;19913;-76
2022/04/01 00:05:03;;;;;;;;;;;17.90;52.30;;;;;;5000498;28;23975;-76
2022/04/01 00:07:29;;;;;;;;;;;17.90;52.40;;;;;;5005998;28;20379;-77
2022/04/01 00:09:54;;;;;;;;;;;17.90;52.30;;;;;;5006759;28;19918;-77
2022/04/01 00:12:19;;;;;;;;;;;17.90;52.30;;;;;;4990140;28;19924;-77
2022/04/01 00:14:45;;;;;;;;;;;17.90;52.40;;;;;;4995981;28;20440;-75
2022/04/01 00:17:10;;;;;;;;;;;17.90;52.40;;;;;;5005713;28;19922;-75
2022/04/01 00:19:36;;;;;;;;;;;17.90;52.30;;;;;;5000083;28;19921;-74
2022/04/01 00:22:01;;;;;;;;;;;17.90;52.40;;;;;;5006475;28;19967;-75
2022/04/01 00:24:27;;;;;;;;;;;17.90;52.30;;;;;;5006816;28;19925;-78
2022/04/01 00:26:52;;;;;;;;;;;17.90;52.20;;;;;;5007316;28;19920;-75
2022/04/01 00:29:18;;;;;;;;;;;17.90;52.40;;;;;;5006434;28;20287;-75
2022/04/01 00:31:43;;;;;;;;;;;17.90;52.40;;;;;;4989455;28;19917;-74
2022/04/01 00:34:17;;;;;;;;;;;17.90;52.40;;;;;;5006887;28;20537;-79
2022/04/01 00:36:46;;;;;;;;;;;17.80;52.20;;;;;;5006909;28;19913;-77
2022/04/01 00:39:12;;;;;;;;;;;17.80;52.40;;;;;;5021394;28;20413;-75
2022/04/01 00:41:38;;;;;;;;;;;17.80;52.30;;;;;;5006490;28;19914;-76
2022/04/01 00:44:13;;;;;;;;;;;17.80;52.40;;;;;;5005741;28;19926;-77
2022/04/01 00:46:42;;;;;;;;;;;17.80;52.30;;;;;;5005050;28;19917;-74
2022/04/01 00:49:08;;;;;;;;;;;17.80;52.40;;;;;;5004242;28;19971;-76
2022/04/01 00:51:33;;;;;;;;;;;17.80;52.40;;;;;;5005755;28;20104;-76
2022/04/01 00:53:58;;;;;;;;;;;17.80;52.40;;;;;;4971927;28;19984;-77
2022/04/01 00:56:25;;;;;;;;;;;17.80;52.40;;;;;;5002511;28;20378;-77
2022/04/01 00:58:51;;;;;;;;;;;17.80;52.40;;;;;;5004313;28;19924;-75
2022/04/01 01:01:16;;;;;;;;;;;17.80;52.40;;;;;;5005699;28;19913;-74
2022/04/01 01:03:42;;;;;;;;;;;17.80;52.40;;;;;;5005624;28;19947;-77
2022/04/01 01:06:08;;;;;;;;;;;17.80;52.30;;;;;;5005506;28;20409;-75
2022/04/01 01:08:34;;;;;;;;;;;17.80;52.30;;;;;;5004573;28;19996;-75
2022/04/01 01:11:01;;;;;;;;;;;17.80;52.30;;;;;;5004366;28;19925;-75
2022/04/01 01:13:27;;;;;;;;;;;17.70;52.30;;;;;;5005483;28;20040;-76
2022/04/01 01:15:53;;;;;;;;;;;17.80;52.20;;;;;;5005412;28;19959;-75
2022/04/01 01:18:18;;;;;;;;;;;17.70;52.20;;;;;;5003666;28;19952;-77
2022/04/01 01:20:43;;;;;;;;;;;17.80;52.30;;;;;;4998422;28;19914;-75
2022/04/01 01:23:12;;;;;;;;;;;17.80;52.30;;;;;;5005046;28;20370;-77
2022/04/01 01:25:38;;;;;;;;;;;17.70;52.20;;;;;;5005119;28;19964;-75
2022/04/01 01:28:03;;;;;;;;;;;17.80;52.20;;;;;;5004245;28;19914;-77
2022/04/01 01:30:29;;;;;;;;;;;17.70;52.20;;;;;;5001365;28;19925;-77
2022/04/01 01:32:55;;;;;;;;;;;17.70;52.10;;;;;;5006052;28;19913;-77
2022/04/01 01:35:20;;;;;;;;;;;17.70;52.20;;;;;;5005183;28;19921;-75
2022/04/01 01:37:46;;;;;;;;;;;17.80;52.30;;;;;;5005912;28;19940;-75
2022/04/01 01:40:11;;;;;;;;;;;17.80;52.30;;;;;;5006108;28;19972;-75
2022/04/01 01:42:37;;;;;;;;;;;17.80;52.30;;;;;;5006119;28;19953;-75
2022/04/01 01:45:02;;;;;;;;;;;17.80;52.20;;;;;;4988244;28;19917;-75
2022/04/01 01:47:28;;;;;;;;;;;17.80;52.20;;;;;;5005645;28;19921;-76
2022/04/01 01:55:21;;;;;;;;;;;18.00;52.10;;;;;;4986401;28;19983;-76
2022/04/01 01:57:47;;;;;;;;;;;18.00;52.00;;;;;;5004659;28;20128;-77
2022/04/01 02:00:13;;;;;;;;;;;18.00;52.00;;;;;;4988462;28;20391;-78
2022/04/01 02:02:39;;;;;;;;;;;18.10;52.10;;;;;;4985125;28;19914;-75
2022/04/01 02:05:06;;;;;;;;;;;18.10;52.00;;;;;;4969247;28;20001;-76
2022/04/01 02:07:31;;;;;;;;;;;18.10;52.00;;;;;;4987857;28;19917;-76
2022/04/01 02:09:57;;;;;;;;;;;18.10;52.00;;;;;;4989087;28;19917;-75
2022/04/01 02:12:22;;;;;;;;;;;18.00;52.00;;;;;;5012103;28;19913;-76
2022/04/01 02:14:48;;;;;;;;;;;18.00;52.00;;;;;;5003383;28;19925;-77
2022/04/01 02:17:13;;;;;;;;;;;18.00;52.00;;;;;;5004915;28;19922;-76
2022/04/01 02:19:39;;;;;;;;;;;18.00;52.10;;;;;;4986413;28;20263;-76
2022/04/01 02:22:05;;;;;;;;;;;17.90;52.00;;;;;;5004473;28;19922;-76
2022/04/01 02:24:31;;;;;;;;;;;17.90;52.00;;;;;;5004634;28;19925;-76
2022/04/01 02:26:56;;;;;;;;;;;17.90;52.20;;;;;;5004781;28;19913;-77
2022/04/01 02:29:22;;;;;;;;;;;17.80;52.20;;;;;;5004377;28;20629;-76
2022/04/01 02:31:50;;;;;;;;;;;17.70;52.40;;;;;;5004468;28;20443;-75
2022/04/01 02:34:16;;;;;;;;;;;17.70;52.60;;;;;;5002724;28;19914;-75
2022/04/01 02:36:41;;;;;;;;;;;17.70;52.50;;;;;;4993282;28;19953;-75
2022/04/01 02:39:07;;;;;;;;;;;17.60;52.60;;;;;;5021255;28;19948;-77
2022/04/01 02:41:32;;;;;;;;;;;17.60;52.60;;;;;;4992030;28;19913;-76
2022/04/01 02:44:08;;;;;;;;;;;17.60;53.20;;;;;;5004945;28;20367;-75
2022/04/01 02:46:35;;;;;;;;;;;17.60;52.60;;;;;;4973529;28;19987;-75
2022/04/01 02:49:00;;;;;;;;;;;17.50;52.60;;;;;;5005634;28;19914;-75
2022/04/01 02:51:26;;;;;;;;;;;17.50;52.40;;;;;;5008926;28;20290;-75
2022/04/01 02:53:51;;;;;;;;;;;17.40;52.40;;;;;;4975275;28;19993;-75
2022/04/01 02:56:17;;;;;;;;;;;17.40;52.40;;;;;;5008876;28;20362;-76
2022/04/01 02:58:42;;;;;;;;;;;17.40;52.50;;;;;;5006932;28;19913;-75
2022/04/01 03:01:08;;;;;;;;;;;17.30;52.60;;;;;;5005946;28;19913;-77
2022/04/01 03:03:34;;;;;;;;;;;17.30;52.70;;;;;;5005684;28;20341;-77
2022/04/01 03:05:59;;;;;;;;;;;17.30;52.70;;;;;;4988566;28;19925;-75
2022/04/01 03:08:26;;;;;;;;;;;17.30;52.70;;;;;;5005901;28;19913;-75
2022/04/01 03:10:52;;;;;;;;;;;17.20;52.70;;;;;;5005518;28;20434;-75
2022/04/01 03:13:17;;;;;;;;;;;17.20;52.70;;;;;;4992519;28;19949;-75
2022/04/01 03:15:43;;;;;;;;;;;17.20;52.70;;;;;;4988170;28;20371;-75
2022/04/01 03:18:09;;;;;;;;;;;17.20;52.60;;;;;;4997825;28;19921;-76
2022/04/01 03:20:35;;;;;;;;;;;17.20;52.70;;;;;;5004232;28;19914;-76
2022/04/01 03:23:01;;;;;;;;;;;17.10;52.70;;;;;;4994779;28;19917;-76
2022/04/01 03:25:32;;;;;;;;;;;17.10;52.80;;;;;;4987172;28;19960;-75
2022/04/01 03:27:58;;;;;;;;;;;17.10;53.40;;;;;;4994350;28;20338;-75
2022/04/01 03:30:23;;;;;;;;;;;17.10;53.00;;;;;;4986742;28;19918;-75
2022/04/01 03:32:49;;;;;;;;;;;17.20;53.00;;;;;;5005553;28;19925;-78
2022/04/01 03:35:15;;;;;;;;;;;17.20;52.70;;;;;;5009243;28;20350;-78
2022/04/01 03:37:41;;;;;;;;;;;17.30;52.70;;;;;;5009047;28;19913;-77
2022/04/01 03:40:07;;;;;;;;;;;17.30;52.60;;;;;;5008467;28;19923;-77
2022/04/01 03:42:32;;;;;;;;;;;17.40;52.70;;;;;;5006720;28;20232;-77
2022/04/01 03:45:06;;;;;;;;;;;17.40;52.50;;;;;;5007918;28;19917;-75
2022/04/01 03:47:40;;;;;;;;;;;17.50;52.40;;;;;;4991297;28;20346;-76
2022/04/01 03:50:07;;;;;;;;;;;17.60;52.10;;;;;;5006822;28;19976;-76
2022/04/01 03:52:33;;;;;;;;;;;17.60;51.90;;;;;;5005568;28;19914;-75
2022/04/01 03:55:01;;;;;;;;;;;17.70;51.80;;;;;;5007559;28;19920;-75
2022/04/01 03:57:32;;;;;;;;;;;17.70;51.60;;;;;;4989964;28;19914;-76
2022/04/01 03:59:58;;;;;;;;;;;17.80;51.50;;;;;;5006488;28;19921;-76
2022/04/01 04:02:24;;;;;;;;;;;17.80;51.30;;;;;;5007360;28;19914;-75
2022/04/01 04:04:51;;;;;;;;;;;18.00;51.20;;;;;;4982608;28;19925;-75
2022/04/01 04:07:17;;;;;;;;;;;18.00;51.00;;;;;;4989632;28;20012;-75
2022/04/01 04:09:42;;;;;;;;;;;18.10;51.00;;;;;;5005835;28;19921;-75
2022/04/01 04:12:09;;;;;;;;;;;18.10;50.90;;;;;;5007343;28;19921;-75
2022/04/01 04:14:35;;;;;;;;;;;18.10;50.80;;;;;;5012647;23;19933;-50
2022/04/01 04:17:05;;;;;;;;;;;18.20;50.70;;;;;;5019614;28;19921;-50
2022/04/01 04:19:41;;;;;;;;;;;18.20;51.30;;;;;;5003788;28;19959;-50
2022/04/01 04:22:13;;;;;;;;;;;18.20;50.50;;;;;;4984219;28;19921;-48
2022/04/01 04:24:41;;;;;;;;;;;18.30;50.50;;;;;;5018414;28;20644;-50
2022/04/01 04:27:11;;;;;;;;;;;18.30;50.40;;;;;;5022086;28;19921;-50
2022/04/01 04:29:49;;;;;;;;;;;18.30;50.30;;;;;;5021463;28;20055;-50
2022/04/01 04:32:27;;;;;;;;;;;18.30;50.40;;;;;;5021870;28;19936;-52
2022/04/01 04:34:54;;;;;;;;;;;18.30;50.30;;;;;;5021016;28;19913;-50
2022/04/01 04:37:21;;;;;;;;;;;18.40;50.40;;;;;;5021111;28;20647;-50
2022/04/01 04:39:46;;;;;;;;;;;18.40;50.30;;;;;;5019563;28;20588;-52
2022/04/01 04:42:12;;;;;;;;;;;18.40;50.30;;;;;;5020299;28;19913;-49
2022/04/01 04:44:39;;;;;;;;;;;18.40;50.40;;;;;;5019241;28;19924;-49
2022/04/01 04:47:07;;;;;;;;;;;18.30;50.50;;;;;;5019799;28;19913;-51
2022/04/01 04:49:33;;;;;;;;;;;18.40;50.50;;;;;;5020202;28;19913;-49
2022/04/01 04:51:58;;;;;;;;;;;18.30;50.50;;;;;;5022975;28;20002;-49
2022/04/01 04:54:25;;;;;;;;;;;18.30;50.60;;;;;;5022367;28;19913;-48
2022/04/01 04:56:50;;;;;;;;;;;18.30;50.60;;;;;;5021458;28;19917;-49
2022/04/01 04:59:18;;;;;;;;;;;18.30;50.60;;;;;;5021938;28;19928;-47
2022/04/01 05:02:03;;;;;;;;;;;18.30;50.70;;;;;;5022897;28;19928;-50
2022/04/01 05:04:32;;;;;;;;;;;18.30;50.70;;;;;;5022642;28;19952;-49
2022/04/01 05:07:13;;;;;;;;;;;18.30;50.70;;;;;;5028266;28;19960;-50
2022/04/01 05:09:40;;;;;;;;;;;18.30;50.70;;;;;;5032274;28;19989;-49
2022/04/01 05:12:06;;;;;;;;;;;18.20;50.50;;;;;;5032946;28;19913;-49
2022/04/01 05:14:34;;;;;;;;;;;18.20;50.50;;;;;;5036515;28;19924;-50
2022/04/01 05:17:00;;;;;;;;;;;18.20;50.60;;;;;;5041777;28;19940;-49
2022/04/01 05:19:29;;;;;;;;;;;18.20;50.60;;;;;;5037535;28;19913;-48
2022/04/01 05:21:54;;;;;;;;;;;18.20;50.60;;;;;;5024051;28;19920;-48
2022/04/01 05:24:23;;;;;;;;;;;18.20;50.60;;;;;;5021768;28;19921;-50
2022/04/01 05:26:52;;;;;;;;;;;18.10;50.70;;;;;;5021349;28;20452;-53
2022/04/01 05:29:25;;;;;;;;;;;18.10;50.90;;;;;;5018520;28;20605;-51
2022/04/01 05:31:52;;;;;;;;;;;18.10;51.10;;;;;;5015708;28;19955;-50
2022/04/01 05:34:36;;;;;;;;;;;18.10;52.10;;;;;;5016719;28;19913;-51
2022/04/01 05:37:02;;;;;;;;;;;18.00;51.80;;;;;;5020491;28;19921;-48
2022/04/01 05:39:28;;;;;;;;;;;18.00;51.60;;;;;;5019678;28;20000;-48
2022/04/01 05:41:54;;;;;;;;;;;18.00;52.30;;;;;;5019831;28;19992;-51
2022/04/01 05:44:19;;;;;;;;;;;17.90;52.20;;;;;;5018352;28;19925;-51
2022/04/01 05:46:45;;;;;;;;;;;17.90;52.70;;;;;;5019870;28;19924;-49
2022/04/01 05:49:11;;;;;;;;;;;17.80;52.90;;;;;;5018143;28;19920;-52
2022/04/01 05:51:37;;;;;;;;;;;17.80;53.60;;;;;;5018840;28;19921;-53
2022/04/01 05:54:02;;;;;;;;;;;17.80;54.20;;;;;;5020225;28;19959;-49
2022/04/01 05:56:31;;;;;;;;;;;17.70;54.60;;;;;;5020040;28;20485;-51
2022/04/01 05:58:57;;;;;;;;;;;17.70;55.00;;;;;;5018535;28;19919;-50
2022/04/01 06:01:25;;;;;;;;;;;17.70;55.30;;;;;;5020019;28;19914;-51
2022/04/01 06:03:54;;;;;;;;;;;17.60;55.40;;;;;;5019786;28;19921;-53
2022/04/01 06:06:28;;;;;;;;;;;17.60;55.50;;;;;;5020127;28;19913;-49
2022/04/01 06:08:56;;;;;;;;;;;17.70;55.20;;;;;;5019236;28;19913;-49
2022/04/01 06:11:30;;;;;;;;;;;17.60;54.70;;;;;;5018352;28;19913;-49
2022/04/01 06:14:00;;;;;;;;;;;17.60;54.20;;;;;;5019877;28;20360;-49
2022/04/01 06:16:27;;;;;;;;;;;17.70;53.60;;;;;;5019399;28;19921;-50
2022/04/01 06:18:58;;;;;;;;;;;17.60;53.10;;;;;;5017449;28;19913;-50
2022/04/01 06:21:24;;;;;;;;;;;17.60;52.70;;;;;;5018064;28;19924;-50
2022/04/01 06:23:49;;;;;;;;;;;17.60;52.20;;;;;;5018704;28;20349;-50
2022/04/01 06:26:15;;;;;;;;;;;17.60;51.80;;;;;;5019150;28;20073;-51
2022/04/01 06:28:49;;;;;;;;;;;17.60;51.40;;;;;;5017528;28;20003;-51
2022/04/01 06:31:14;;;;;;;;;;;17.60;50.70;;;;;;5019208;28;19913;-52
2022/04/01 06:33:51;;;;;;;;;;;17.60;50.70;;;;;;5015459;28;19920;-51
2022/04/01 06:36:54;;;;;;;;;;;17.60;51.00;;;;;;5017300;28;19913;-46
2022/04/01 06:39:21;;;;;;;;;;;17.60;51.70;;;;;;5017678;28;19917;-51
2022/04/01 06:41:46;;;;;;;;;;;17.60;52.20;;;;;;5018858;28;20555;-49
2022/04/01 06:44:12;;;;;;;;;;;17.60;52.10;;;;;;5018796;28;19964;-49
2022/04/01 06:46:37;;;;;;;;;;;17.60;52.20;;;;;;5018788;28;19975;-49
2022/04/01 06:49:07;;;;;;;;;;;17.60;52.30;;;;;;5018206;28;19941;-50
2022/04/01 06:51:34;;;;;;;;;;;17.60;51.80;;;;;;5018855;28;20013;-51
2022/04/01 06:54:00;;;;;;;;;;;17.60;51.60;;;;;;5019137;28;19921;-50
2022/04/01 06:56:26;;;;;;;;;;;17.60;51.30;;;;;;5018990;28;19913;-49
2022/04/01 06:58:52;;;;;;;;;;;17.50;51.00;;;;;;5018334;28;20375;-50
2022/04/01 07:01:17;;;;;;;;;;;17.60;50.90;;;;;;5018525;28;19913;-52
2022/04/01 07:03:42;;;;;;;;;;;17.60;50.70;;;;;;5019364;28;20417;-51
2022/04/01 07:06:08;;;;;;;;;;;17.60;50.80;;;;;;5034133;28;19920;-50
2022/04/01 07:08:34;;;;;;;;;;;17.50;50.50;;;;;;5036603;28;19917;-49
2022/04/01 07:11:01;;;;;;;;;;;17.50;50.30;;;;;;5023061;28;20046;-50
2022/04/01 07:13:26;;;;;;;;;;;17.50;50.00;;;;;;5021098;28;19952;-50
2022/04/01 07:15:52;;;;;;;;;;;17.60;49.70;;;;;;5022652;28;19928;-49
2022/04/01 07:18:18;;;;;;;;;;;17.50;49.30;;;;;;5023263;28;19936;-50
2022/04/01 07:20:45;;;;;;;;;;;17.50;49.00;;;;;;5022680;28;19936;-48
2022/04/01 07:23:11;;;;;;;;;;;17.60;49.00;;;;;;5022623;28;19994;-51
2022/04/01 07:25:36;;;;;;;;;;;17.50;49.10;;;;;;5022702;28;19921;-50
2022/04/01 07:28:01;;;;;;;;;;;17.50;49.20;;;;;;5022748;28;20360;-50
2022/04/01 07:30:27;;;;;;;;;;;17.50;49.20;;;;;;5023007;28;19913;-48
2022/04/01 07:32:54;;;;;;;;;;;17.50;49.10;;;;;;5023113;28;19960;-50
2022/04/01 07:35:20;;;;;;;;;;;17.50;49.30;;;;;;5023041;28;19913;-50
2022/04/01 07:37:46;;;;;;;;;;;17.50;49.20;;;;;;5021089;28;19917;-47
2022/04/01 07:40:13;;;;;;;;;;;17.50;49.10;;;;;;5022050;28;19913;-49
2022/04/01 07:42:38;;;;;;;;;;;17.50;49.20;;;;;;5022107;28;20116;-50
2022/04/01 07:45:04;;;;;;;;;;;17.50;49.30;;;;;;5021860;28;19923;-50
2022/04/01 07:47:31;;;;;;;;;;;17.50;49.60;;;;;;5021286;28;19948;-49
2022/04/01 07:49:57;;;;;;;;;;;17.40;49.80;;;;;;5020799;28;19920;-49
2022/04/01 07:52:22;;;;;;;;;;;17.40;50.00;;;;;;5021940;28;19972;-48
2022/04/01 07:54:48;;;;;;;;;;;17.40;50.10;;;;;;5022087;28;19920;-47
2022/04/01 07:57:13;;;;;;;;;;;17.40;50.20;;;;;;5021913;28;20101;-50
2022/04/01 07:59:39;;;;;;;;;;;17.30;50.40;;;;;;5020057;28;20371;-49
2022/04/01 08:02:05;;;;;;;;;;;17.30;50.60;;;;;;5022730;28;19917;-49
2022/04/01 08:04:30;;;;;;;;;;;17.20;50.60;;;;;;5020228;28;19986;-50
2022/04/01 08:06:56;;;;;;;;;;;17.10;50.70;;;;;;5021596;28;19917;-50
2022/04/01 08:09:23;;;;;;;;;;;17.10;51.20;;;;;;5021270;28;20016;-50
2022/04/01 08:11:49;;;;;;;;;;;17.20;51.10;;;;;;5021724;28;20588;-50
2022/04/01 08:14:14;;;;;;;;;;;17.30;50.80;;;;;;5021277;28;19966;-50
2022/04/01 08:16:40;;;;;;;;;;;17.30;50.80;;;;;;5021088;28;22357;-49
2022/04/01 08:19:05;;;;;;;;;;;17.30;51.00;;;;;;5020258;28;19963;-49
2022/04/01 08:21:31;;;;;;;;;;;17.40;51.00;;;;;;5019992;28;20454;-50
2022/04/01 08:23:57;;;;;;;;;;;17.40;50.80;;;;;;5020708;28;19917;-48
2022/04/01 08:26:23;;;;;;;;;;;17.40;50.80;;;;;;5021763;28;19913;-50
2022/04/01 08:28:48;;;;;;;;;;;17.50;50.90;;;;;;5022008;28;20525;-49
2022/04/01 08:31:14;;;;;;;;;;;17.50;50.80;;;;;;5021529;28;20286;-51
2022/04/01 08:33:39;;;;;;;;;;;17.60;50.70;;;;;;5020896;28;19913;-50
2022/04/01 08:36:05;;;;;;;;;;;17.70;50.60;;;;;;5036091;28;19921;-51
2022/04/01 08:38:31;;;;;;;;;;;17.70;50.50;;;;;;5020609;28;19921;-50
2022/04/01 08:40:56;;;;;;;;;;;17.70;50.30;;;;;;5019625;28;19914;-50
2022/04/01 08:43:29;;;;;;;;;;;17.80;50.20;;;;;;5021004;28;19921;-50
2022/04/01 08:45:55;;;;;;;;;;;17.90;50.10;;;;;;5020799;28;20040;-50
2022/04/01 08:48:20;;;;;;;;;;;17.90;50.10;;;;;;5020674;28;19919;-49
2022/04/01 08:50:46;;;;;;;;;;;18.00;50.00;;;;;;5019804;28;19917;-50
2022/04/01 08:53:11;;;;;;;;;;;18.00;49.90;;;;;;5020853;28;19914;-49
2022/04/01 08:55:37;;;;;;;;;;;18.00;49.80;;;;;;5035562;28;19913;-50
2022/04/01 08:58:03;;;;;;;;;;;18.00;49.80;;;;;;5021312;28;20007;-50
2022/04/01 09:00:29;;;;;;;;;;;18.10;49.80;;;;;;5020352;28;19914;-51
2022/04/01 09:03:04;;;;;;;;;;;18.10;49.70;;;;;;5020654;28;20289;-50
2022/04/01 09:05:30;;;;;;;;;;;18.10;49.70;;;;;;5020521;28;20368;-50
2022/04/01 09:07:59;;;;;;;;;;;18.20;49.70;;;;;;5021057;28;19913;-51
2022/04/01 09:10:24;;;;;;;;;;;18.20;49.60;;;;;;5020880;28;20432;-50
2022/04/01 09:12:51;;;;;;;;;;;18.20;49.50;;;;;;5020890;28;19918;-50
2022/04/01 09:15:18;;;;;;;;;;;18.20;49.50;;;;;;5020280;28;19921;-50
2022/04/01 09:17:44;;;;;;;;;;;18.20;49.60;;;;;;5020129;28;19917;-49
2022/04/01 09:20:10;;;;;;;;;;;18.20;49.50;;;;;;5019398;28;20109;-50
2022/04/01 09:22:35;;;;;;;;;;;18.30;49.60;;;;;;5020128;28;19936;-51
2022/04/01 09:25:12;;;;;;;;;;;18.30;49.50;;;;;;5035064;28;20066;-49
2022/04/01 09:27:39;;;;;;;;;;;18.20;49.60;;;;;;5020198;28;19913;-48
2022/04/01 09:30:04;;;;;;;;;;;18.20;49.60;;;;;;5018702;28;20321;-50
2022/04/01 09:32:37;;;;;;;;;;;18.20;49.70;;;;;;5020260;28;19921;-50
2022/04/01 09:35:02;;;;;;;;;;;18.10;49.80;;;;;;5018629;28;19924;-50
2022/04/01 09:37:35;;;;;;;;;;;18.20;49.90;;;;;;5019790;28;19913;-50
2022/04/01 09:40:00;;;;;;;;;;;18.10;50.00;;;;;;5019387;28;19944;-50
2022/04/01 09:42:26;;;;;;;;;;;18.10;50.00;;;;;;5019723;28;20757;-50
2022/04/01 09:44:51;;;;;;;;;;;18.00;50.00;;;;;;5019932;28;20002;-50
2022/04/01 09:47:19;;;;;;;;;;;18.00;50.10;;;;;;5018268;28;20563;-50
2022/04/01 09:49:46;;;;;;;;;;;17.90;50.30;;;;;;5017905;28;19921;-50
2022/04/01 09:52:12;;;;;;;;;;;17.90;50.30;;;;;;5019560;28;19913;-50
2022/04/01 09:54:47;;;;;;;;;;;17.90;50.40;;;;;;5020172;28;19913;-50
2022/04/01 09:57:13;;;;;;;;;;;17.90;50.50;;;;;;5019960;28;19978;-49
2022/04/01 09:59:40;;;;;;;;;;;17.90;50.60;;;;;;5019481;28;19940;-50
2022/04/01 10:02:05;;;;;;;;;;;17.80;50.60;;;;;;5019649;28;20028;-49
2022/04/01 10:04:31;;;;;;;;;;;17.90;50.80;;;;;;5019342;28;20379;-49
2022/04/01 10:06:56;;;;;;;;;;;17.80;50.60;;;;;;5019444;28;19921;-52
2022/04/01 10:09:22;;;;;;;;;;;17.80;50.90;;;;;;5018950;28;20492;-49
2022/04/01 10:11:47;;;;;;;;;;;17.70;51.00;;;;;;5019202;28;19936;-49
2022/04/01 10:14:14;;;;;;;;;;;17.80;50.90;;;;;;5017283;28;20008;-49
2022/04/01 10:16:43;;;;;;;;;;;17.70;51.10;;;;;;5019456;28;20329;-50
2022/04/01 10:19:19;;;;;;;;;;;17.70;50.90;;;;;;5018823;28;19913;-50
2022/04/01 10:21:44;;;;;;;;;;;17.70;51.10;;;;;;5017805;28;19917;-50
2022/04/01 10:24:13;;;;;;;;;;;17.70;51.10;;;;;;5018708;28;20608;-49
2022/04/01 10:26:39;;;;;;;;;;;17.60;50.90;;;;;;5018381;28;20459;-50
2022/04/01 10:29:05;;;;;;;;;;;17.70;51.20;;;;;;5000216;28;19913;-49
2022/04/01 10:31:31;;;;;;;;;;;17.70;51.30;;;;;;5018495;28;19924;-50
2022/04/01 10:34:15;;;;;;;;;;;17.60;51.10;;;;;;5018228;28;19913;-50
2022/04/01 10:36:42;;;;;;;;;;;17.60;51.30;;;;;;5018508;28;19913;-47
2022/04/01 10:39:10;;;;;;;;;;;17.60;51.50;;;;;;5018788;28;19921;-49
2022/04/01 10:41:35;;;;;;;;;;;17.60;51.50;;;;;;5018055;28;20707;-50
2022/04/01 10:44:01;;;;;;;;;;;17.60;51.50;;;;;;5018381;28;19948;-49
2022/04/01 10:46:26;;;;;;;;;;;17.60;51.40;;;;;;5018303;28;19924;-49
2022/04/01 10:52:24;;;;;;;;;;;17.60;51.70;;;;;;5018310;28;20408;-48
2022/04/01 10:54:50;;;;;;;;;;;17.50;51.60;;;;;;4918654;29;19914;-50
2022/04/01 10:57:31;;;;;;;;;;;17.50;51.70;;;;;;4997334;28;20509;-49
2022/04/01 11:00:00;;;;;;;;;;;17.60;51.70;;;;;;5018294;28;19920;-49
2022/04/01 11:02:25;;;;;;;;;;;17.60;51.70;;;;;;5018335;28;19920;-49
2022/04/01 11:04:52;;;;;;;;;;;17.60;51.60;;;;;;5018333;28;19921;-49
2022/04/01 11:07:23;;;;;;;;;;;17.60;51.60;;;;;;5017091;28;19913;-48
2022/04/01 11:09:54;;;;;;;;;;;17.50;51.60;;;;;;5018282;28;19920;-50
2022/04/01 11:12:21;;;;;;;;;;;17.50;51.60;;;;;;5018910;28;20133;-50
2022/04/01 11:14:59;;;;;;;;;;;17.60;52.10;;;;;;5018141;28;19928;-48
2022/04/01 11:19:59;;;;;;;;;;;17.60;51.50;;;;;;4981733;28;19925;-52
2022/04/01 11:22:37;;;;;;;;;;;17.60;51.50;;;;;;4978778;28;19917;-50
2022/04/01 11:25:03;;;;;;;;;;;17.60;51.50;;;;;;4954351;28;20017;-50
2022/04/01 11:27:29;;;;;;;;;;;17.60;51.50;;;;;;4998163;28;20012;-50
2022/04/01 11:30:13;;;;;;;;;;;17.60;51.30;;;;;;4997832;28;19955;-50
2022/04/01 11:32:40;;;;;;;;;;;17.60;51.40;;;;;;4998863;28;19952;-54
2022/04/01 11:35:06;;;;;;;;;;;17.60;51.40;;;;;;4998797;28;19920;-52
2022/04/01 11:37:34;;;;;;;;;;;17.60;51.40;;;;;;4998519;28;20409;-50
2022/04/01 11:40:26;;;;;;;;;;;17.60;51.40;;;;;;4998942;28;19917;-52
2022/04/01 11:42:52;;;;;;;;;;;17.60;51.40;;;;;;4994604;28;20418;-50
2022/04/01 11:45:18;;;;;;;;;;;17.60;51.40;;;;;;4998533;28;19921;-53
2022/04/01 11:47:43;;;;;;;;;;;17.60;51.10;;;;;;4998672;28;20394;-54
2022/04/01 11:50:09;;;;;;;;;;;17.60;51.40;;;;;;4998067;28;19913;-50
2022/04/01 11:52:35;;;;;;;;;;;17.60;51.40;;;;;;4998048;28;19957;-50
2022/04/01 11:55:01;;;;;;;;;;;17.60;51.40;;;;;;5002427;28;20394;-53
2022/04/01 11:57:28;;;;;;;;;;;17.60;51.50;;;;;;4985000;28;19917;-49
2022/04/01 11:59:53;;;;;;;;;;;17.60;51.50;;;;;;4984921;28;19913;-51
2022/04/01 12:02:19;;;;;;;;;;;17.60;51.40;;;;;;5001287;28;19925;-51
2022/04/01 12:04:44;;;;;;;;;;;17.60;51.40;;;;;;5001749;28;19918;-50
2022/04/01 12:09:54;;;;;;;;;;;17.60;51.10;;;;;;5002243;28;19987;-52
2022/04/01 12:12:26;;;;;;;;;;;17.60;51.30;;;;;;5001468;28;20374;-51
2022/04/01 12:14:54;;;;;;;;;;;17.60;51.30;;;;;;5002193;28;19917;-51
2022/04/01 12:17:20;;;;;;;;;;;17.70;51.40;;;;;;5001810;28;20386;-52
2022/04/01 12:19:45;;;;;;;;;;;17.60;51.30;;;;;;4984295;28;19976;-51
2022/04/01 12:22:11;;;;;;;;;;;17.70;51.20;;;;;;4983991;28;19914;-50
2022/04/01 12:24:38;;;;;;;;;;;17.70;51.30;;;;;;5001388;28;20056;-50
2022/04/01 12:27:05;;;;;;;;;;;17.70;51.30;;;;;;5000404;28;19914;-51
2022/04/01 12:29:30;;;;;;;;;;;17.70;51.20;;;;;;5000702;28;19914;-50
2022/04/01 12:31:59;;;;;;;;;;;17.70;51.20;;;;;;5001287;28;19914;-49
2022/04/01 12:34:25;;;;;;;;;;;17.70;51.10;;;;;;5000819;28;20362;-50
2022/04/01 12:36:54;;;;;;;;;;;17.70;51.10;;;;;;4983178;28;19941;-53
2022/04/01 12:39:20;;;;;;;;;;;17.70;51.00;;;;;;4998902;28;19914;-50
2022/04/01 12:41:53;;;;;;;;;;;17.70;51.20;;;;;;4999877;28;19921;-50
2022/04/01 12:44:21;;;;;;;;;;;17.70;51.30;;;;;;5000780;28;19921;-51
2022/04/01 12:46:47;;;;;;;;;;;17.70;51.30;;;;;;5000789;28;19952;-50
2022/04/01 12:49:13;;;;;;;;;;;17.70;51.30;;;;;;4999933;28;19913;-50
2022/04/01 12:51:42;;;;;;;;;;;17.70;51.30;;;;;;4999499;28;19917;-50
2022/04/01 12:54:08;;;;;;;;;;;17.70;51.20;;;;;;4983088;28;19917;-52
2022/04/01 12:56:40;;;;;;;;;;;17.70;51.30;;;;;;5000365;28;19968;-49
2022/04/01 12:59:06;;;;;;;;;;;17.70;51.10;;;;;;4999173;28;19921;-50
2022/04/01 13:01:32;;;;;;;;;;;17.70;51.30;;;;;;4999369;28;19914;-49
2022/04/01 13:03:58;;;;;;;;;;;17.70;51.30;;;;;;4981671;28;19928;-52
2022/04/01 13:06:25;;;;;;;;;;;17.70;51.40;;;;;;4999157;28;20012;-49
2022/04/01 13:08:56;;;;;;;;;;;17.70;51.30;;;;;;4999366;28;19914;-51
2022/04/01 13:11:23;;;;;;;;;;;17.70;51.30;;;;;;4999214;28;19914;-51
2022/04/01 13:13:52;;;;;;;;;;;17.70;51.30;;;;;;5000206;28;20309;-52
2022/04/01 13:16:17;;;;;;;;;;;17.70;51.10;;;;;;5000671;28;19925;-53
2022/04/01 13:18:43;;;;;;;;;;;17.70;51.10;;;;;;5000082;28;19921;-50
2022/04/01 13:21:08;;;;;;;;;;;17.70;51.20;;;;;;4999367;28;19917;-52
2022/04/01 13:23:35;;;;;;;;;;;17.80;51.20;;;;;;4999879;28;19917;-49
2022/04/01 13:26:01;;;;;;;;;;;17.80;51.20;;;;;;4982411;28;20122;-49
2022/04/01 13:28:26;;;;;;;;;;;17.80;51.10;;;;;;5000033;28;20379;-52
2022/04/01 13:30:52;;;;;;;;;;;17.80;51.00;;;;;;5000057;28;19964;-50
2022/04/01 13:33:17;;;;;;;;;;;17.70;51.10;;;;;;5000043;28;20393;-50
2022/04/01 13:35:43;;;;;;;;;;;17.80;51.10;;;;;;5000209;28;19914;-50
2022/04/01 13:38:08;;;;;;;;;;;17.70;51.10;;;;;;5000632;28;19921;-57
2022/04/01 13:40:34;;;;;;;;;;;17.80;51.20;;;;;;5001686;28;20445;-52
2022/04/01 13:43:00;;;;;;;;;;;17.80;51.10;;;;;;5002888;28;19924;-52
2022/04/01 13:45:25;;;;;;;;;;;17.70;51.00;;;;;;5002193;28;19917;-52
2022/04/01 13:47:51;;;;;;;;;;;17.80;51.10;;;;;;5001752;28;20093;-53
2022/04/01 13:50:17;;;;;;;;;;;17.80;51.20;;;;;;5001912;28;20594;-50
2022/04/01 13:52:42;;;;;;;;;;;17.70;51.10;;;;;;5001732;28;19914;-49
2022/04/01 13:55:08;;;;;;;;;;;17.80;51.10;;;;;;5000604;28;19987;-52
2022/04/01 13:57:34;;;;;;;;;;;17.70;51.10;;;;;;4999698;28;19917;-54
2022/04/01 13:59:59;;;;;;;;;;;17.70;51.00;;;;;;5001238;28;19945;-53
2022/04/01 14:02:25;;;;;;;;;;;17.70;51.00;;;;;;4999250;28;19936;-51
2022/04/01 14:04:50;;;;;;;;;;;17.70;51.10;;;;;;4999461;28;20298;-53
2022/04/01 14:07:16;;;;;;;;;;;17.70;51.10;;;;;;4999858;28;19917;-53
2022/04/01 14:09:42;;;;;;;;;;;17.70;51.10;;;;;;4981477;28;19967;-51
2022/04/01 14:12:08;;;;;;;;;;;17.70;51.10;;;;;;4998920;28;20068;-51
2022/04/01 14:14:34;;;;;;;;;;;17.70;51.10;;;;;;4999598;28;20161;-52
2022/04/01 14:17:00;;;;;;;;;;;17.70;51.10;;;;;;5000340;28;19971;-52
2022/04/01 14:19:25;;;;;;;;;;;17.70;51.10;;;;;;4999440;28;19925;-51
2022/04/01 14:21:51;;;;;;;;;;;17.70;51.10;;;;;;4999261;28;20365;-51
2022/04/01 14:24:16;;;;;;;;;;;17.70;51.10;;;;;;4998458;28;19964;-51
2022/04/01 14:26:42;;;;;;;;;;;17.60;51.10;;;;;;4998264;28;20232;-48
2022/04/01 14:31:57;;;;;;;;;;;17.70;51.30;;;;;;4997808;28;19967;-50